sensor_id;sensor_type;location;lat;lon;timestamp;temperature;humidity
23801;DHT22;12081;48.614;10.226;2023-02-15T00:05:13;-0.90;99.90
23801;DHT22;12081;48.614;10.226;2023-02-15T00:07:57;-0.90;99.90
23801;DHT22;12081;48.614;10.226;2023-02-15T00:10:41;-0.90;99.90
23801;DHT22;12081;48.614;10.226;2023-02-15T00:13:26;-0.90;99.90
23801;DHT22;12081;48.614;10.226;2023-02-15T00:20:18;-0.90;99.90
23801;DHT22;12081;48.614;10.226;2023-02-15T00:23:02;-0.80;99.90
23801;DHT22;12081;48.614;10.226;2023-02-15T00:25:47;-0.90;99.90
23801;DHT22;12081;48.614;10.226;2023-02-15T00:28:31;-0.90;99.90
23801;DHT22;12081;48.614;10.226;2023-02-15T00:31:16;-0.90;99.90
23801;DHT22;12081;48.614;10.226;2023-02-15T00:34:22;-0.90;99.90
23801;DHT22;12081;48.614;10.226;2023-02-15T00:37:07;-0.80;99.90
23801;DHT22;12081;48.614;10.226;2023-02-15T00:39:51;-0.80;99.90
23801;DHT22;12081;48.614;10.226;2023-02-15T00:42:36;-0.70;99.90
23801;DHT22;12081;48.614;10.226;2023-02-15T00:45:20;-0.80;99.90
23801;DHT22;12081;48.614;10.226;2023-02-15T00:48:05;-0.70;99.90
23801;DHT22;12081;48.614;10.226;2023-02-15T00:50:51;-0.80;99.90
23801;DHT22;12081;48.614;10.226;2023-02-15T00:53:36;-0.80;99.90
23801;DHT22;12081;48.614;10.226;2023-02-15T00:56:21;-0.80;99.90
23801;DHT22;12081;48.614;10.226;2023-02-15T00:59:06;-0.80;99.90
23801;DHT22;12081;48.614;10.226;2023-02-15T01:01:50;-0.70;99.90
23801;DHT22;12081;48.614;10.226;2023-02-15T01:04:35;-0.80;99.90
23801;DHT22;12081;48.614;10.226;2023-02-15T01:07:19;-0.80;99.90
23801;DHT22;12081;48.614;10.226;2023-02-15T01:10:06;-0.70;99.90
23801;DHT22;12081;48.614;10.226;2023-02-15T01:12:51;-0.80;99.90
23801;DHT22;12081;48.614;10.226;2023-02-15T01:15:36;-0.80;99.90
23801;DHT22;12081;48.614;10.226;2023-02-15T01:18:21;-0.90;99.90
23801;DHT22;12081;48.614;10.226;2023-02-15T01:21:14;-0.80;99.90
23801;DHT22;12081;48.614;10.226;2023-02-15T01:24:00;-0.90;99.90
23801;DHT22;12081;48.614;10.226;2023-02-15T01:26:45;-0.90;99.90
23801;DHT22;12081;48.614;10.226;2023-02-15T01:29:29;-0.90;99.90
23801;DHT22;12081;48.614;10.226;2023-02-15T01:32:14;-0.70;99.90
23801;DHT22;12081;48.614;10.226;2023-02-15T01:34:58;-0.90;99.90
23801;DHT22;12081;48.614;10.226;2023-02-15T01:37:43;-0.90;99.90
23801;DHT22;12081;48.614;10.226;2023-02-15T01:40:27;-0.90;99.90
23801;DHT22;12081;48.614;10.226;2023-02-15T01:45:57;-0.90;99.90
23801;DHT22;12081;48.614;10.226;2023-02-15T01:48:46;-0.90;99.90
23801;DHT22;12081;48.614;10.226;2023-02-15T01:51:34;-0.90;99.90
23801;DHT22;12081;48.614;10.226;2023-02-15T01:57:16;-0.90;99.90
23801;DHT22;12081;48.614;10.226;2023-02-15T02:00:06;-0.90;99.90
23801;DHT22;12081;48.614;10.226;2023-02-15T02:02:54;-0.90;99.90
23801;DHT22;12081;48.614;10.226;2023-02-15T02:05:40;-0.90;99.90
23801;DHT22;12081;48.614;10.226;2023-02-15T02:08:25;-0.90;99.90
23801;DHT22;12081;48.614;10.226;2023-02-15T02:11:14;-1.00;99.90
23801;DHT22;12081;48.614;10.226;2023-02-15T02:13:59;-0.90;99.90
23801;DHT22;12081;48.614;10.226;2023-02-15T02:41:29;-1.20;99.90
23801;DHT22;12081;48.614;10.226;2023-02-15T04:03:21;-1.30;99.90
23801;DHT22;12081;48.614;10.226;2023-02-15T04:06:14;-1.40;99.90
23801;DHT22;12081;48.614;10.226;2023-02-15T06:09:31;-1.80;99.90
23801;DHT22;12081;48.614;10.226;2023-02-15T06:12:20;-1.90;99.90
23801;DHT22;12081;48.614;10.226;2023-02-15T06:15:05;-1.90;99.90
23801;DHT22;12081;48.614;10.226;2023-02-15T06:21:03;-2.10;99.90
23801;DHT22;12081;48.614;10.226;2023-02-15T06:26:54;-1.80;99.90
23801;DHT22;12081;48.614;10.226;2023-02-15T06:32:25;-1.90;99.90
23801;DHT22;12081;48.614;10.226;2023-02-15T06:35:30;-1.80;99.90
23801;DHT22;12081;48.614;10.226;2023-02-15T06:40:59;-1.80;99.90
23801;DHT22;12081;48.614;10.226;2023-02-15T06:46:28;-1.70;99.90
23801;DHT22;12081;48.614;10.226;2023-02-15T06:49:12;-1.70;99.90
23801;DHT22;12081;48.614;10.226;2023-02-15T06:51:56;-1.70;99.90
23801;DHT22;12081;48.614;10.226;2023-02-15T06:57:25;-1.60;99.90
23801;DHT22;12081;48.614;10.226;2023-02-15T07:00:09;-1.60;99.90
23801;DHT22;12081;48.614;10.226;2023-02-15T07:02:57;-1.60;99.90
23801;DHT22;12081;48.614;10.226;2023-02-15T07:05:42;-1.60;99.90
23801;DHT22;12081;48.614;10.226;2023-02-15T07:08:28;-1.60;99.90
23801;DHT22;12081;48.614;10.226;2023-02-15T07:11:12;-1.60;99.90
23801;DHT22;12081;48.614;10.226;2023-02-15T07:14:15;-1.60;99.90
23801;DHT22;12081;48.614;10.226;2023-02-15T07:16:59;-1.60;99.90
23801;DHT22;12081;48.614;10.226;2023-02-15T07:22:28;-1.40;99.90
23801;DHT22;12081;48.614;10.226;2023-02-15T07:25:12;-1.50;99.90
23801;DHT22;12081;48.614;10.226;2023-02-15T07:28:00;-1.40;99.90
23801;DHT22;12081;48.614;10.226;2023-02-15T07:30:44;-1.40;99.90
23801;DHT22;12081;48.614;10.226;2023-02-15T07:33:31;-1.40;99.90
23801;DHT22;12081;48.614;10.226;2023-02-15T07:36:15;-1.30;99.90
23801;DHT22;12081;48.614;10.226;2023-02-15T07:38:59;-1.30;99.90
23801;DHT22;12081;48.614;10.226;2023-02-15T07:41:43;-1.20;99.90
23801;DHT22;12081;48.614;10.226;2023-02-15T07:44:27;-1.40;99.90
23801;DHT22;12081;48.614;10.226;2023-02-15T07:47:11;-1.20;99.90
23801;DHT22;12081;48.614;10.226;2023-02-15T07:49:55;-1.10;99.90
23801;DHT22;12081;48.614;10.226;2023-02-15T07:55:24;-1.10;99.90
23801;DHT22;12081;48.614;10.226;2023-02-15T07:58:08;-1.00;99.90
23801;DHT22;12081;48.614;10.226;2023-02-15T08:00:52;-1.00;99.90
23801;DHT22;12081;48.614;10.226;2023-02-15T08:03:42;-1.10;99.90
23801;DHT22;12081;48.614;10.226;2023-02-15T08:06:29;-1.10;99.90
23801;DHT22;12081;48.614;10.226;2023-02-15T08:11:58;-0.90;99.90
23801;DHT22;12081;48.614;10.226;2023-02-15T08:14:42;-0.90;99.90
23801;DHT22;12081;48.614;10.226;2023-02-15T08:17:27;-0.90;99.90
23801;DHT22;12081;48.614;10.226;2023-02-15T08:20:11;-0.80;99.90
23801;DHT22;12081;48.614;10.226;2023-02-15T08:22:54;-0.80;99.90
23801;DHT22;12081;48.614;10.226;2023-02-15T08:25:39;-0.80;99.90
23801;DHT22;12081;48.614;10.226;2023-02-15T08:28:23;-0.70;99.90
23801;DHT22;12081;48.614;10.226;2023-02-15T08:31:12;-0.50;99.90
23801;DHT22;12081;48.614;10.226;2023-02-15T08:33:57;-0.50;99.90
23801;DHT22;12081;48.614;10.226;2023-02-15T08:36:41;-0.50;99.90
23801;DHT22;12081;48.614;10.226;2023-02-15T08:39:26;-0.40;99.90
23801;DHT22;12081;48.614;10.226;2023-02-15T08:42:10;-0.30;99.90
23801;DHT22;12081;48.614;10.226;2023-02-15T08:44:54;-0.40;99.90
23801;DHT22;12081;48.614;10.226;2023-02-15T08:50:23;-0.10;99.90
23801;DHT22;12081;48.614;10.226;2023-02-15T08:55:58;-0.10;99.90
23801;DHT22;12081;48.614;10.226;2023-02-15T08:58:42;0.10;99.90
23801;DHT22;12081;48.614;10.226;2023-02-15T09:01:29;0.00;99.90
23801;DHT22;12081;48.614;10.226;2023-02-15T09:04:13;0.00;99.90
23801;DHT22;12081;48.614;10.226;2023-02-15T09:06:59;-0.10;99.90
23801;DHT22;12081;48.614;10.226;2023-02-15T09:09:43;0.10;99.90
23801;DHT22;12081;48.614;10.226;2023-02-15T09:15:13;0.10;99.90
23801;DHT22;12081;48.614;10.226;2023-02-15T09:17:58;0.10;99.90
23801;DHT22;12081;48.614;10.226;2023-02-15T09:20:50;0.10;99.90
23801;DHT22;12081;48.614;10.226;2023-02-15T09:23:34;0.40;99.90
23801;DHT22;12081;48.614;10.226;2023-02-15T09:26:20;0.30;99.90
23801;DHT22;12081;48.614;10.226;2023-02-15T09:29:06;0.50;99.90
23801;DHT22;12081;48.614;10.226;2023-02-15T09:31:51;0.50;99.90
23801;DHT22;12081;48.614;10.226;2023-02-15T09:34:35;0.60;99.90
23801;DHT22;12081;48.614;10.226;2023-02-15T09:37:19;0.70;99.90
23801;DHT22;12081;48.614;10.226;2023-02-15T09:40:12;0.90;99.90
23801;DHT22;12081;48.614;10.226;2023-02-15T09:46:13;0.80;99.90
23801;DHT22;12081;48.614;10.226;2023-02-15T09:55:25;1.10;99.90
23801;DHT22;12081;48.614;10.226;2023-02-15T09:58:55;1.00;99.90
23801;DHT22;12081;48.614;10.226;2023-02-15T10:02:05;1.10;99.90
23801;DHT22;12081;48.614;10.226;2023-02-15T10:05:07;1.00;99.90
23801;DHT22;12081;48.614;10.226;2023-02-15T10:27:31;1.50;99.90
23801;DHT22;12081;48.614;10.226;2023-02-15T10:30:46;1.50;99.90
23801;DHT22;12081;48.614;10.226;2023-02-15T10:33:41;1.60;99.90
23801;DHT22;12081;48.614;10.226;2023-02-15T10:42:53;1.80;99.90
23801;DHT22;12081;48.614;10.226;2023-02-15T10:55:34;1.90;99.90
23801;DHT22;12081;48.614;10.226;2023-02-15T11:01:56;1.90;99.90
23801;DHT22;12081;48.614;10.226;2023-02-15T11:07:59;2.30;99.90
23801;DHT22;12081;48.614;10.226;2023-02-15T11:10:54;2.40;99.90
23801;DHT22;12081;48.614;10.226;2023-02-15T11:13:46;2.30;99.90
23801;DHT22;12081;48.614;10.226;2023-02-15T11:16:37;2.30;99.90
23801;DHT22;12081;48.614;10.226;2023-02-15T11:19:31;2.20;99.90
23801;DHT22;12081;48.614;10.226;2023-02-15T11:22:16;2.30;99.90
23801;DHT22;12081;48.614;10.226;2023-02-15T11:25:02;2.40;99.90
23801;DHT22;12081;48.614;10.226;2023-02-15T11:27:49;2.40;99.90
23801;DHT22;12081;48.614;10.226;2023-02-15T11:30:46;2.30;99.90
23801;DHT22;12081;48.614;10.226;2023-02-15T11:33:35;2.40;99.90
23801;DHT22;12081;48.614;10.226;2023-02-15T11:36:25;2.50;99.90
23801;DHT22;12081;48.614;10.226;2023-02-15T11:39:14;2.40;99.90
23801;DHT22;12081;48.614;10.226;2023-02-15T11:42:04;2.40;99.90
23801;DHT22;12081;48.614;10.226;2023-02-15T11:45:10;2.40;99.90
23801;DHT22;12081;48.614;10.226;2023-02-15T11:48:01;2.50;99.90
23801;DHT22;12081;48.614;10.226;2023-02-15T11:50:52;2.50;99.90
23801;DHT22;12081;48.614;10.226;2023-02-15T11:53:37;2.60;99.90
23801;DHT22;12081;48.614;10.226;2023-02-15T11:56:24;2.70;99.90
23801;DHT22;12081;48.614;10.226;2023-02-15T11:59:17;2.80;99.90
23801;DHT22;12081;48.614;10.226;2023-02-15T12:02:02;2.90;99.90
23801;DHT22;12081;48.614;10.226;2023-02-15T12:04:58;3.10;99.90
23801;DHT22;12081;48.614;10.226;2023-02-15T12:07:48;3.10;99.90
23801;DHT22;12081;48.614;10.226;2023-02-15T12:10:42;3.30;99.90
23801;DHT22;12081;48.614;10.226;2023-02-15T12:13:28;3.30;99.90
23801;DHT22;12081;48.614;10.226;2023-02-15T12:16:14;3.30;99.90
23801;DHT22;12081;48.614;10.226;2023-02-15T12:19:00;3.30;99.90
23801;DHT22;12081;48.614;10.226;2023-02-15T12:21:44;3.10;99.90
23801;DHT22;12081;48.614;10.226;2023-02-15T12:24:34;3.20;99.90
23801;DHT22;12081;48.614;10.226;2023-02-15T12:27:32;3.20;99.90
23801;DHT22;12081;48.614;10.226;2023-02-15T12:30:29;3.30;99.90
23801;DHT22;12081;48.614;10.226;2023-02-15T12:33:20;3.20;99.90
23801;DHT22;12081;48.614;10.226;2023-02-15T12:36:12;3.30;99.90
23801;DHT22;12081;48.614;10.226;2023-02-15T12:42:01;3.60;99.90
23801;DHT22;12081;48.614;10.226;2023-02-15T12:44:55;3.70;99.90
23801;DHT22;12081;48.614;10.226;2023-02-15T12:47:39;3.80;99.90
23801;DHT22;12081;48.614;10.226;2023-02-15T12:50:24;4.00;99.90
23801;DHT22;12081;48.614;10.226;2023-02-15T12:53:23;4.10;99.90
23801;DHT22;12081;48.614;10.226;2023-02-15T12:56:26;4.20;99.90
23801;DHT22;12081;48.614;10.226;2023-02-15T12:59:14;4.30;99.90
23801;DHT22;12081;48.614;10.226;2023-02-15T13:02:12;4.30;99.90
23801;DHT22;12081;48.614;10.226;2023-02-15T13:05:10;4.30;99.90
23801;DHT22;12081;48.614;10.226;2023-02-15T13:08:03;4.30;99.90
23801;DHT22;12081;48.614;10.226;2023-02-15T13:10:54;4.40;99.90
23801;DHT22;12081;48.614;10.226;2023-02-15T13:13:54;4.40;99.90
23801;DHT22;12081;48.614;10.226;2023-02-15T13:16:40;4.80;99.90
23801;DHT22;12081;48.614;10.226;2023-02-15T13:19:45;5.10;99.90
23801;DHT22;12081;48.614;10.226;2023-02-15T13:22:38;5.20;99.90
23801;DHT22;12081;48.614;10.226;2023-02-15T13:25:28;5.30;99.90
23801;DHT22;12081;48.614;10.226;2023-02-15T13:28:15;5.50;99.90
23801;DHT22;12081;48.614;10.226;2023-02-15T13:31:00;5.60;99.90
23801;DHT22;12081;48.614;10.226;2023-02-15T13:33:58;5.70;99.90
23801;DHT22;12081;48.614;10.226;2023-02-15T13:36:58;4.90;99.90
23801;DHT22;12081;48.614;10.226;2023-02-15T13:40:02;5.90;99.90
23801;DHT22;12081;48.614;10.226;2023-02-15T13:52:24;6.30;99.90
23801;DHT22;12081;48.614;10.226;2023-02-15T13:55:30;6.50;99.90
23801;DHT22;12081;48.614;10.226;2023-02-15T13:58:48;6.50;99.90
23801;DHT22;12081;48.614;10.226;2023-02-15T14:07:50;7.00;99.90
23801;DHT22;12081;48.614;10.226;2023-02-15T14:13:42;6.50;99.90
23801;DHT22;12081;48.614;10.226;2023-02-15T14:19:57;6.00;99.90
23801;DHT22;12081;48.614;10.226;2023-02-15T14:22:46;6.00;99.90
23801;DHT22;12081;48.614;10.226;2023-02-15T14:25:42;5.90;99.90
23801;DHT22;12081;48.614;10.226;2023-02-15T14:28:44;6.10;99.90
23801;DHT22;12081;48.614;10.226;2023-02-15T14:31:34;6.40;99.90
23801;DHT22;12081;48.614;10.226;2023-02-15T14:34:25;6.90;99.90
23801;DHT22;12081;48.614;10.226;2023-02-15T14:37:13;7.30;99.90
23801;DHT22;12081;48.614;10.226;2023-02-15T14:44:16;7.60;99.90
23801;DHT22;12081;48.614;10.226;2023-02-15T14:47:18;7.30;99.90
23801;DHT22;12081;48.614;10.226;2023-02-15T14:56:17;6.20;99.90
23801;DHT22;12081;48.614;10.226;2023-02-15T14:59:17;5.80;99.90
23801;DHT22;12081;48.614;10.226;2023-02-15T15:22:32;6.80;99.90
23801;DHT22;12081;48.614;10.226;2023-02-15T15:25:51;6.70;99.90
23801;DHT22;12081;48.614;10.226;2023-02-15T15:31:50;6.50;99.90
23801;DHT22;12081;48.614;10.226;2023-02-15T15:41:18;6.40;99.90
23801;DHT22;12081;48.614;10.226;2023-02-15T15:50:27;5.80;99.90
23801;DHT22;12081;48.614;10.226;2023-02-15T15:53:22;5.60;99.90
23801;DHT22;12081;48.614;10.226;2023-02-15T15:56:18;5.30;99.90
23801;DHT22;12081;48.614;10.226;2023-02-15T15:59:17;4.70;99.90
23801;DHT22;12081;48.614;10.226;2023-02-15T16:02:07;4.30;99.90
23801;DHT22;12081;48.614;10.226;2023-02-15T16:07:40;3.70;99.90
23801;DHT22;12081;48.614;10.226;2023-02-15T16:10:27;3.40;99.90
23801;DHT22;12081;48.614;10.226;2023-02-15T16:13:13;3.20;99.90
23801;DHT22;12081;48.614;10.226;2023-02-15T16:18:43;2.70;99.90
23801;DHT22;12081;48.614;10.226;2023-02-15T16:21:30;2.60;99.90
23801;DHT22;12081;48.614;10.226;2023-02-15T16:27:41;2.20;99.90
23801;DHT22;12081;48.614;10.226;2023-02-15T16:30:34;2.20;99.90
23801;DHT22;12081;48.614;10.226;2023-02-15T16:36:05;2.00;99.90
23801;DHT22;12081;48.614;10.226;2023-02-15T16:41:36;1.80;99.90
23801;DHT22;12081;48.614;10.226;2023-02-15T16:44:21;1.70;99.90
23801;DHT22;12081;48.614;10.226;2023-02-15T16:47:14;1.70;99.90
23801;DHT22;12081;48.614;10.226;2023-02-15T16:50:01;1.50;99.90
23801;DHT22;12081;48.614;10.226;2023-02-15T16:52:46;1.40;99.90
23801;DHT22;12081;48.614;10.226;2023-02-15T16:55:39;1.30;99.90
23801;DHT22;12081;48.614;10.226;2023-02-15T16:58:39;1.20;99.90
23801;DHT22;12081;48.614;10.226;2023-02-15T17:01:28;1.20;99.90
23801;DHT22;12081;48.614;10.226;2023-02-15T17:04:28;1.10;99.90
23801;DHT22;12081;48.614;10.226;2023-02-15T17:07:18;1.20;99.90
23801;DHT22;12081;48.614;10.226;2023-02-15T17:12:53;1.10;99.90
23801;DHT22;12081;48.614;10.226;2023-02-15T17:18:45;1.00;99.90
23801;DHT22;12081;48.614;10.226;2023-02-15T17:21:40;0.90;99.90
23801;DHT22;12081;48.614;10.226;2023-02-15T17:27:22;1.00;99.90
23801;DHT22;12081;48.614;10.226;2023-02-15T17:30:26;1.00;99.90
23801;DHT22;12081;48.614;10.226;2023-02-15T17:36:22;0.80;99.90
23801;DHT22;12081;48.614;10.226;2023-02-15T17:39:19;0.80;99.90
23801;DHT22;12081;48.614;10.226;2023-02-15T17:42:04;0.80;99.90
23801;DHT22;12081;48.614;10.226;2023-02-15T17:50:23;0.60;99.90
23801;DHT22;12081;48.614;10.226;2023-02-15T17:53:08;0.50;99.90
23801;DHT22;12081;48.614;10.226;2023-02-15T17:55:54;0.40;99.90
23801;DHT22;12081;48.614;10.226;2023-02-15T18:04:27;0.30;99.90
23801;DHT22;12081;48.614;10.226;2023-02-15T18:07:30;0.30;99.90
23801;DHT22;12081;48.614;10.226;2023-02-15T18:10:33;0.30;99.90
23801;DHT22;12081;48.614;10.226;2023-02-15T18:16:23;0.30;99.90
23801;DHT22;12081;48.614;10.226;2023-02-15T18:19:16;0.30;99.90
23801;DHT22;12081;48.614;10.226;2023-02-15T18:24:48;0.30;99.90
23801;DHT22;12081;48.614;10.226;2023-02-15T18:27:32;0.20;99.90
23801;DHT22;12081;48.614;10.226;2023-02-15T18:30:21;0.20;99.90
23801;DHT22;12081;48.614;10.226;2023-02-15T18:41:21;0.10;99.90
23801;DHT22;12081;48.614;10.226;2023-02-15T18:44:12;0.00;99.90
23801;DHT22;12081;48.614;10.226;2023-02-15T18:52:27;0.00;99.90
23801;DHT22;12081;48.614;10.226;2023-02-15T18:55:25;0.00;99.90
23801;DHT22;12081;48.614;10.226;2023-02-15T18:58:16;0.00;99.90
23801;DHT22;12081;48.614;10.226;2023-02-15T19:03:48;0.00;99.90
23801;DHT22;12081;48.614;10.226;2023-02-15T19:09:20;-0.20;99.90
23801;DHT22;12081;48.614;10.226;2023-02-15T19:12:08;-0.30;99.90
23801;DHT22;12081;48.614;10.226;2023-02-15T19:20:27;-0.40;99.90
23801;DHT22;12081;48.614;10.226;2023-02-15T19:23:21;-0.40;99.90
23801;DHT22;12081;48.614;10.226;2023-02-15T19:42:34;-0.50;99.90
23801;DHT22;12081;48.614;10.226;2023-02-15T19:45:22;-0.60;99.90
23801;DHT22;12081;48.614;10.226;2023-02-15T19:56:21;-0.40;99.90
23801;DHT22;12081;48.614;10.226;2023-02-15T19:59:24;-0.60;99.90
23801;DHT22;12081;48.614;10.226;2023-02-15T20:02:13;-0.60;99.90
23801;DHT22;12081;48.614;10.226;2023-02-15T20:07:45;-0.70;99.90
23801;DHT22;12081;48.614;10.226;2023-02-15T20:10:30;-0.70;99.90
23801;DHT22;12081;48.614;10.226;2023-02-15T20:13:17;-0.70;99.90
23801;DHT22;12081;48.614;10.226;2023-02-15T20:24:20;0.90;99.90
23801;DHT22;12081;48.614;10.226;2023-02-15T20:27:12;-0.90;99.90
23801;DHT22;12081;48.614;10.226;2023-02-15T20:38:24;-1.00;99.90
23801;DHT22;12081;48.614;10.226;2023-02-15T20:41:13;-1.10;99.90
23801;DHT22;12081;48.614;10.226;2023-02-15T20:44:24;-1.10;99.90
23801;DHT22;12081;48.614;10.226;2023-02-15T20:55:25;-1.20;99.90
23801;DHT22;12081;48.614;10.226;2023-02-15T20:58:25;-1.30;99.90
23801;DHT22;12081;48.614;10.226;2023-02-15T21:03:55;-1.20;99.90
23801;DHT22;12081;48.614;10.226;2023-02-15T21:09:24;-1.20;99.90
23801;DHT22;12081;48.614;10.226;2023-02-15T21:12:14;-1.30;99.90
23801;DHT22;12081;48.614;10.226;2023-02-15T21:20:29;0.30;99.90
23801;DHT22;12081;48.614;10.226;2023-02-15T21:23:16;-1.40;99.90
23801;DHT22;12081;48.614;10.226;2023-02-15T21:26:00;-1.40;99.90
23801;DHT22;12081;48.614;10.226;2023-02-15T21:28:45;-1.50;99.90
23801;DHT22;12081;48.614;10.226;2023-02-15T21:31:30;-1.40;99.90
23801;DHT22;12081;48.614;10.226;2023-02-15T21:34:15;-1.50;99.90
23801;DHT22;12081;48.614;10.226;2023-02-15T21:45:33;-1.50;99.90
23801;DHT22;12081;48.614;10.226;2023-02-15T21:54:25;-1.40;99.90
23801;DHT22;12081;48.614;10.226;2023-02-15T21:57:12;-1.40;99.90
23801;DHT22;12081;48.614;10.226;2023-02-15T21:59:57;-1.30;99.90
23801;DHT22;12081;48.614;10.226;2023-02-15T22:02:43;-1.30;99.90
23801;DHT22;12081;48.614;10.226;2023-02-15T22:05:30;-1.20;99.90
23801;DHT22;12081;48.614;10.226;2023-02-15T22:08:15;-1.20;99.90
23801;DHT22;12081;48.614;10.226;2023-02-15T22:10:59;-1.10;99.90
23801;DHT22;12081;48.614;10.226;2023-02-15T22:13:44;-1.20;99.90
23801;DHT22;12081;48.614;10.226;2023-02-15T22:19:14;-1.20;99.90
23801;DHT22;12081;48.614;10.226;2023-02-15T22:21:58;-1.30;99.90
23801;DHT22;12081;48.614;10.226;2023-02-15T22:30:30;-1.20;99.90
23801;DHT22;12081;48.614;10.226;2023-02-15T22:33:27;-1.40;99.90
23801;DHT22;12081;48.614;10.226;2023-02-15T22:36:38;-1.40;99.90
23801;DHT22;12081;48.614;10.226;2023-02-15T22:42:23;-1.50;99.90
23801;DHT22;12081;48.614;10.226;2023-02-15T22:45:15;-1.60;99.90
23801;DHT22;12081;48.614;10.226;2023-02-15T22:59:23;-1.90;99.90
23801;DHT22;12081;48.614;10.226;2023-02-15T23:02:12;-1.90;99.90
23801;DHT22;12081;48.614;10.226;2023-02-15T23:10:28;-1.90;99.90
23801;DHT22;12081;48.614;10.226;2023-02-15T23:13:22;-1.90;99.90
23801;DHT22;12081;48.614;10.226;2023-02-15T23:16:17;-2.00;99.90
23801;DHT22;12081;48.614;10.226;2023-02-15T23:33:09;-1.90;99.90
23801;DHT22;12081;48.614;10.226;2023-02-15T23:41:25;-2.10;99.90
23801;DHT22;12081;48.614;10.226;2023-02-15T23:44:11;-2.20;99.90
23801;DHT22;12081;48.614;10.226;2023-02-15T23:55:13;-2.30;99.90
